createdAt,value
2018-03-03T00:02:15.209Z,-7.80
2018-03-03T00:04:42.765Z,-7.80
2018-03-03T00:07:10.344Z,-7.90
2018-03-03T00:09:37.843Z,-7.90
2018-03-03T00:12:05.364Z,-8.00
2018-03-03T00:14:33.047Z,-8.00
2018-03-03T00:17:00.566Z,-8.00
2018-03-03T00:19:28.075Z,-8.00
2018-03-03T00:21:56.576Z,-7.90
2018-03-03T00:24:24.155Z,-7.90
2018-03-03T00:26:52.399Z,-7.70
2018-03-03T00:29:19.930Z,-7.70
2018-03-03T00:31:47.693Z,-7.90
2018-03-03T00:34:15.203Z,-7.80
2018-03-03T00:36:42.903Z,-8.10
2018-03-03T00:39:10.838Z,-8.20
2018-03-03T00:41:38.359Z,-8.40
2018-03-03T00:44:05.872Z,-8.30
2018-03-03T00:46:33.395Z,-8.20
2018-03-03T00:49:00.907Z,-8.20
2018-03-03T00:51:28.574Z,-8.00
2018-03-03T00:53:56.092Z,-8.10
2018-03-03T00:56:23.764Z,-8.20
2018-03-03T00:58:51.275Z,-8.40
2018-03-03T01:01:19.015Z,-8.30
2018-03-03T01:03:46.537Z,-8.30
2018-03-03T01:06:14.132Z,-8.40
2018-03-03T01:08:41.683Z,-8.40
2018-03-03T01:11:09.203Z,-8.40
2018-03-03T01:13:36.899Z,-8.20
2018-03-03T01:16:04.410Z,-8.20
2018-03-03T01:18:32.042Z,-8.40
2018-03-03T01:20:59.571Z,-8.40
2018-03-03T01:23:27.083Z,-8.30
2018-03-03T01:25:54.656Z,-8.50
2018-03-03T01:28:22.279Z,-8.60
2018-03-03T01:30:49.804Z,-8.70
2018-03-03T01:33:17.311Z,-8.80
2018-03-03T01:35:45.593Z,-8.50
2018-03-03T01:38:13.111Z,-8.50
2018-03-03T01:40:40.617Z,-8.50
2018-03-03T01:43:08.240Z,-8.80
2018-03-03T01:45:36.679Z,-9.00
2018-03-03T01:48:04.195Z,-9.00
2018-03-03T01:50:33.117Z,-8.80
2018-03-03T01:53:00.695Z,-8.80
2018-03-03T01:55:28.203Z,-8.60
2018-03-03T01:57:56.362Z,-8.40
2018-03-03T02:00:23.867Z,-8.40
2018-03-03T02:02:51.390Z,-8.60
2018-03-03T02:05:19.032Z,-8.50
2018-03-03T02:07:46.536Z,-8.60
2018-03-03T02:10:14.216Z,-8.50
2018-03-03T02:12:41.740Z,-8.70
2018-03-03T02:15:09.459Z,-8.60
2018-03-03T02:17:37.076Z,-8.70
2018-03-03T02:20:04.696Z,-8.50
2018-03-03T02:22:32.212Z,-8.70
2018-03-03T02:24:59.876Z,-8.60
2018-03-03T02:27:27.722Z,-8.40
2018-03-03T02:29:55.431Z,-8.50
2018-03-03T02:32:22.954Z,-8.40
2018-03-03T02:34:50.591Z,-8.30
2018-03-03T02:37:18.201Z,-8.30
2018-03-03T02:39:45.714Z,-8.20
2018-03-03T02:42:13.999Z,-8.10
2018-03-03T02:44:41.662Z,-8.10
2018-03-03T02:47:09.471Z,-8.40
2018-03-03T02:49:36.999Z,-8.30
2018-03-03T02:52:04.644Z,-8.30
2018-03-03T02:54:32.157Z,-8.60
2018-03-03T02:56:59.678Z,-8.40
2018-03-03T02:59:27.198Z,-8.50
2018-03-03T03:01:55.473Z,-8.30
2018-03-03T03:04:22.988Z,-8.30
2018-03-03T03:06:50.502Z,-8.40
2018-03-03T03:09:18.108Z,-8.40
2018-03-03T03:11:45.871Z,-8.40
2018-03-03T03:14:13.648Z,-8.20
2018-03-03T03:16:41.413Z,-8.30
2018-03-03T03:19:09.170Z,-8.50
2018-03-03T03:21:36.923Z,-8.50
2018-03-03T03:24:04.955Z,-8.50
2018-03-03T03:26:32.464Z,-8.30
2018-03-03T03:28:59.989Z,-8.20
2018-03-03T03:31:28.206Z,-8.20
2018-03-03T03:33:55.719Z,-8.30
2018-03-03T03:36:23.474Z,-8.30
2018-03-03T03:38:51.007Z,-8.40
2018-03-03T03:41:18.508Z,-8.30
2018-03-03T03:43:46.184Z,-8.30
2018-03-03T03:46:13.952Z,-8.40
2018-03-03T03:48:41.727Z,-8.60
2018-03-03T03:51:09.492Z,-8.70
2018-03-03T03:53:37.002Z,-8.70
2018-03-03T03:56:04.697Z,-8.50
2018-03-03T03:58:32.200Z,-8.50
2018-03-03T04:00:59.912Z,-8.80
2018-03-03T04:03:27.419Z,-8.70
2018-03-03T04:05:55.111Z,-8.70
2018-03-03T04:08:22.620Z,-8.60
2018-03-03T04:10:50.140Z,-8.40
2018-03-03T04:13:17.808Z,-8.40
2018-03-03T04:15:45.577Z,-8.80
2018-03-03T04:18:13.074Z,-8.70
2018-03-03T04:20:40.777Z,-8.70
2018-03-03T04:23:08.799Z,-8.60
2018-03-03T04:25:36.326Z,-8.70
2018-03-03T04:28:03.835Z,-8.70
2018-03-03T04:30:31.524Z,-8.70
2018-03-03T04:32:59.728Z,-8.60
2018-03-03T04:35:27.252Z,-8.50
2018-03-03T04:37:54.747Z,-8.40
2018-03-03T04:40:23.086Z,-8.50
2018-03-03T04:42:50.636Z,-8.50
2018-03-03T04:45:18.430Z,-8.50
2018-03-03T04:47:45.964Z,-8.50
2018-03-03T04:50:13.548Z,-8.50
2018-03-03T04:52:41.083Z,-8.60
2018-03-03T04:55:08.612Z,-8.50
2018-03-03T04:57:36.150Z,-8.50
2018-03-03T05:00:09.189Z,-8.60
2018-03-03T05:02:40.238Z,-8.80
2018-03-03T05:05:13.486Z,-8.70
2018-03-03T05:10:48.217Z,-8.80
2018-03-03T05:13:21.519Z,-8.80
2018-03-03T05:15:56.617Z,-8.80
2018-03-03T05:18:29.680Z,-8.80
2018-03-03T05:20:57.974Z,-8.70
2018-03-03T05:23:31.223Z,-8.80
2018-03-03T05:26:04.478Z,-8.70
2018-03-03T05:28:37.735Z,-8.80
2018-03-03T05:31:10.987Z,-8.70
2018-03-03T05:33:44.127Z,-8.60
2018-03-03T05:36:17.407Z,-8.60
2018-03-03T05:38:50.663Z,-8.90
2018-03-03T05:41:24.639Z,-8.80
2018-03-03T05:43:58.426Z,-8.80
2018-03-03T05:46:29.352Z,-8.60
2018-03-03T05:49:12.617Z,-8.70
2018-03-03T05:52:00.800Z,-8.70
2018-03-03T05:54:46.107Z,-8.90
2018-03-03T05:57:19.372Z,-8.90
2018-03-03T06:00:03.536Z,-9.10
2018-03-03T06:02:36.861Z,-9.10
2018-03-03T06:05:10.060Z,-9.10
2018-03-03T06:07:38.375Z,-9.00
2018-03-03T06:10:06.882Z,-9.00
2018-03-03T06:12:34.404Z,-8.80
2018-03-03T06:15:02.919Z,-8.70
2018-03-03T06:17:30.527Z,-9.00
2018-03-03T06:19:58.228Z,-9.00
2018-03-03T06:22:25.739Z,-8.90
2018-03-03T06:24:53.274Z,-9.00
2018-03-03T06:27:20.954Z,-9.00
2018-03-03T06:29:48.463Z,-9.00
2018-03-03T06:32:16.160Z,-9.00
2018-03-03T06:34:43.666Z,-9.30
2018-03-03T06:37:11.248Z,-9.20
2018-03-03T06:39:38.767Z,-9.50
2018-03-03T06:42:06.289Z,-9.30
2018-03-03T06:44:33.834Z,-9.10
2018-03-03T06:47:01.528Z,-8.80
2018-03-03T06:49:29.040Z,-8.80
2018-03-03T06:51:56.708Z,-8.60
2018-03-03T06:54:24.222Z,-8.70
2018-03-03T06:56:51.976Z,-9.00
2018-03-03T06:59:19.488Z,-8.80
2018-03-03T07:01:46.998Z,-8.80
2018-03-03T07:04:14.515Z,-8.70
2018-03-03T07:06:42.027Z,-8.80
2018-03-03T07:09:10.525Z,-9.00
2018-03-03T07:11:38.074Z,-9.00
2018-03-03T07:14:05.616Z,-9.00
2018-03-03T07:16:33.124Z,-9.00
2018-03-03T07:19:00.755Z,-9.00
2018-03-03T07:21:28.360Z,-7.90
2018-03-03T07:23:55.876Z,-5.90
2018-03-03T07:26:23.579Z,-5.70
2018-03-03T07:28:51.110Z,-5.80
2018-03-03T07:31:18.612Z,-6.70
2018-03-03T07:33:46.128Z,-7.30
2018-03-03T07:36:13.651Z,-7.30
2018-03-03T07:38:41.687Z,-7.70
2018-03-03T07:41:09.257Z,-7.80
2018-03-03T07:43:36.781Z,-7.90
2018-03-03T07:46:04.464Z,-7.80
2018-03-03T07:48:31.986Z,-7.80
2018-03-03T07:50:59.664Z,-7.70
2018-03-03T07:53:27.172Z,-7.70
2018-03-03T07:55:54.911Z,-7.60
2018-03-03T07:58:31.579Z,-7.60
2018-03-03T08:00:59.111Z,-7.70
2018-03-03T08:03:26.774Z,-7.70
2018-03-03T08:05:54.298Z,-7.50
2018-03-03T08:08:22.959Z,-7.50
2018-03-03T08:10:50.695Z,-7.60
2018-03-03T08:13:18.212Z,-7.40
2018-03-03T08:15:45.730Z,-7.80
2018-03-03T08:18:13.379Z,-7.60
2018-03-03T08:20:40.954Z,-7.40
2018-03-03T08:23:08.595Z,-7.10
2018-03-03T08:25:36.128Z,-6.00
2018-03-03T08:28:03.636Z,-5.30
2018-03-03T08:30:31.164Z,-3.90
2018-03-03T08:32:58.697Z,-3.20
2018-03-03T08:35:26.208Z,-2.80
2018-03-03T08:37:53.715Z,-2.30
2018-03-03T08:40:22.015Z,-4.00
2018-03-03T08:42:49.740Z,-5.10
2018-03-03T08:45:17.247Z,-5.90
2018-03-03T08:47:44.756Z,-5.90
2018-03-03T08:50:12.467Z,-6.00
2018-03-03T08:52:40.430Z,-6.10
2018-03-03T08:55:07.984Z,-6.10
2018-03-03T08:57:35.752Z,-6.00
2018-03-03T09:00:03.272Z,-6.00
2018-03-03T09:02:30.795Z,-6.10
2018-03-03T09:04:58.311Z,-5.90
2018-03-03T09:07:25.884Z,-5.80
2018-03-03T09:09:53.643Z,-5.80
2018-03-03T09:12:21.158Z,-5.70
2018-03-03T09:14:48.876Z,-5.60
2018-03-03T09:17:16.635Z,-5.70
2018-03-03T09:19:44.163Z,-5.70
2018-03-03T09:22:11.849Z,-5.70
2018-03-03T09:24:39.356Z,-5.50
2018-03-03T09:27:06.899Z,-5.60
2018-03-03T09:29:34.411Z,-5.50
2018-03-03T09:32:01.959Z,-5.30
2018-03-03T09:34:29.463Z,-5.20
2018-03-03T09:36:57.267Z,-5.20
2018-03-03T09:39:24.972Z,-5.20
2018-03-03T09:41:52.480Z,-5.00
2018-03-03T09:44:20.191Z,-4.90
2018-03-03T09:46:47.707Z,-4.70
2018-03-03T09:49:15.384Z,-4.60
2018-03-03T09:51:43.164Z,-4.60
2018-03-03T09:54:10.706Z,-4.40
2018-03-03T09:56:38.370Z,-4.40
2018-03-03T09:59:06.341Z,-4.30
2018-03-03T10:01:33.963Z,-4.20
2018-03-03T10:04:01.367Z,-4.20
2018-03-03T10:06:28.886Z,-4.10
2018-03-03T10:08:56.580Z,-4.10
2018-03-03T10:11:24.112Z,-4.10
2018-03-03T10:13:51.632Z,-4.10
2018-03-03T10:16:19.286Z,-4.00
2018-03-03T10:18:46.790Z,-4.20
2018-03-03T10:21:15.108Z,-4.20
2018-03-03T10:23:42.791Z,-4.20
2018-03-03T10:26:10.318Z,-4.10
2018-03-03T10:28:37.843Z,-4.20
2018-03-03T10:31:05.356Z,-4.10
2018-03-03T10:33:33.611Z,-4.10
2018-03-03T10:36:01.127Z,-4.20
2018-03-03T10:38:28.839Z,-4.00
2018-03-03T10:40:56.342Z,-4.00
2018-03-03T10:43:23.859Z,-4.00
2018-03-03T10:45:51.367Z,-3.90
2018-03-03T10:48:18.889Z,-3.70
2018-03-03T10:50:47.236Z,-3.60
2018-03-03T10:53:14.798Z,-3.60
2018-03-03T10:55:42.318Z,-3.50
2018-03-03T10:58:09.855Z,-3.40
2018-03-03T11:00:38.128Z,-3.40
2018-03-03T11:03:05.825Z,-3.40
2018-03-03T11:05:34.106Z,-3.40
2018-03-03T11:08:01.692Z,-3.40
2018-03-03T11:10:29.211Z,-3.40
2018-03-03T11:12:57.528Z,-3.30
2018-03-03T11:15:25.059Z,-3.20
2018-03-03T11:17:52.570Z,-3.10
2018-03-03T11:20:20.854Z,-3.00
2018-03-03T11:22:48.364Z,-3.00
2018-03-03T11:25:16.040Z,-3.10
2018-03-03T11:27:43.574Z,-3.20
2018-03-03T11:30:11.080Z,-3.10
2018-03-03T11:32:38.638Z,-3.00
2018-03-03T11:35:06.156Z,-4.20
2018-03-03T11:37:33.680Z,-2.90
2018-03-03T11:40:01.376Z,-3.20
2018-03-03T11:42:28.875Z,-3.20
2018-03-03T11:44:56.617Z,-3.20
2018-03-03T11:47:24.979Z,-3.00
2018-03-03T11:49:52.439Z,-3.00
2018-03-03T11:52:19.956Z,-3.10
2018-03-03T11:54:47.700Z,-2.90
2018-03-03T11:57:15.216Z,-2.70
2018-03-03T11:59:42.856Z,-2.70
2018-03-03T12:02:10.376Z,-2.50
2018-03-03T12:04:37.876Z,-2.40
2018-03-03T12:07:05.398Z,-2.40
2018-03-03T12:09:33.931Z,-2.40
2018-03-03T12:12:01.503Z,-2.50
2018-03-03T12:14:29.003Z,-2.50
2018-03-03T12:16:56.611Z,-2.50
2018-03-03T12:19:24.123Z,-2.60
2018-03-03T12:21:51.831Z,-2.70
2018-03-03T12:24:19.344Z,-2.50
2018-03-03T12:26:46.972Z,-2.40
2018-03-03T12:29:14.508Z,-2.50
2018-03-03T12:31:42.023Z,-2.40
2018-03-03T12:34:09.704Z,-2.40
2018-03-03T12:36:37.291Z,-2.30
2018-03-03T12:39:05.709Z,-2.30
2018-03-03T12:41:34.019Z,-2.30
2018-03-03T12:44:01.708Z,-2.30
2018-03-03T12:46:29.214Z,-2.40
2018-03-03T12:48:56.731Z,-2.30
2018-03-03T12:51:24.244Z,-2.20
2018-03-03T12:53:51.759Z,-1.80
2018-03-03T12:56:19.782Z,-1.90
2018-03-03T12:58:47.392Z,-2.20
2018-03-03T13:01:14.864Z,-2.10
2018-03-03T13:03:42.587Z,-2.10
2018-03-03T13:06:10.124Z,-2.00
2018-03-03T13:08:37.615Z,-2.10
2018-03-03T13:11:05.123Z,-2.00
2018-03-03T13:13:34.912Z,-3.20
2018-03-03T13:16:02.628Z,-2.00
2018-03-03T13:18:30.135Z,-1.90
2018-03-03T13:20:57.654Z,-1.80
2018-03-03T13:23:25.161Z,-1.60
2018-03-03T13:25:52.752Z,-0.60
2018-03-03T13:28:20.332Z,0.60
2018-03-03T13:30:48.008Z,2.10
2018-03-03T13:33:15.747Z,2.50
2018-03-03T13:35:43.526Z,1.30
2018-03-03T13:38:11.047Z,0.70
2018-03-03T13:40:38.560Z,0.10
2018-03-03T13:43:08.844Z,-0.70
2018-03-03T13:45:36.568Z,-0.70
2018-03-03T13:48:04.175Z,-0.60
2018-03-03T13:50:31.695Z,-0.70
2018-03-03T13:52:59.201Z,-0.70
2018-03-03T13:55:26.717Z,-0.90
2018-03-03T13:57:54.279Z,-0.90
2018-03-03T14:00:21.819Z,-1.00
2018-03-03T14:02:49.541Z,-1.10
2018-03-03T14:05:17.048Z,-0.90
2018-03-03T14:07:44.574Z,-0.80
2018-03-03T14:10:12.092Z,-0.90
2018-03-03T14:12:41.376Z,-0.70
2018-03-03T14:15:08.981Z,-0.70
2018-03-03T14:17:36.492Z,-0.60
2018-03-03T14:20:03.999Z,-0.60
2018-03-03T14:22:32.350Z,-0.60
2018-03-03T14:24:59.873Z,-0.60
2018-03-03T14:27:28.267Z,-0.10
2018-03-03T14:29:55.805Z,-0.60
2018-03-03T14:32:23.315Z,-0.60
2018-03-03T14:34:51.259Z,-0.70
2018-03-03T14:37:18.832Z,-0.80
2018-03-03T14:39:46.340Z,-0.90
2018-03-03T14:42:13.861Z,-0.80
2018-03-03T14:44:41.432Z,-0.80
2018-03-03T14:47:08.946Z,-0.90
2018-03-03T14:49:36.467Z,-0.90
2018-03-03T14:52:04.596Z,-1.00
2018-03-03T14:54:32.227Z,-0.90
2018-03-03T14:56:59.744Z,-0.80
2018-03-03T14:59:27.346Z,-0.80
2018-03-03T15:01:54.935Z,-0.90
2018-03-03T15:04:22.488Z,-0.90
2018-03-03T15:06:50.760Z,-1.10
2018-03-03T15:09:18.710Z,-1.00
2018-03-03T15:11:46.279Z,-1.10
2018-03-03T15:14:13.779Z,-1.20
2018-03-03T15:16:41.681Z,-1.10
2018-03-03T15:19:09.215Z,-1.30
2018-03-03T15:21:36.984Z,-1.20
2018-03-03T15:24:04.513Z,-1.20
2018-03-03T15:26:32.231Z,-0.10
2018-03-03T15:28:59.780Z,0.80
2018-03-03T15:31:27.504Z,1.30
2018-03-03T15:33:55.239Z,1.10
2018-03-03T15:36:22.755Z,0.60
2018-03-03T15:38:50.443Z,0.30
2018-03-03T15:41:18.629Z,-0.10
2018-03-03T15:43:46.295Z,-0.40
2018-03-03T15:46:14.411Z,-0.70
2018-03-03T15:48:42.118Z,-0.90
2018-03-03T15:51:09.632Z,-0.90
2018-03-03T15:53:37.151Z,-1.10
2018-03-03T15:56:04.826Z,-1.20
2018-03-03T15:58:33.096Z,-1.30
2018-03-03T16:01:00.616Z,-1.30
2018-03-03T16:03:28.407Z,-1.20
2018-03-03T16:05:55.921Z,-1.20
2018-03-03T16:08:23.435Z,-1.30
2018-03-03T16:10:51.099Z,-1.20
2018-03-03T16:13:18.847Z,-1.30
2018-03-03T16:15:46.367Z,-1.40
2018-03-03T16:18:14.080Z,-1.40
2018-03-03T16:20:41.840Z,-1.40
2018-03-03T16:23:09.361Z,-1.40
2018-03-03T16:25:36.932Z,-1.30
2018-03-03T16:28:05.150Z,-1.50
2018-03-03T16:30:32.886Z,-1.50
2018-03-03T16:33:00.391Z,-1.50
2018-03-03T16:35:28.083Z,-1.60
2018-03-03T16:37:55.722Z,-1.60
2018-03-03T16:40:23.234Z,-1.60
2018-03-03T16:42:50.738Z,-1.50
2018-03-03T16:45:18.896Z,-1.40
2018-03-03T16:47:46.411Z,-1.40
2018-03-03T16:50:14.106Z,-1.40
2018-03-03T16:52:42.531Z,-1.20
2018-03-03T16:55:10.039Z,-1.30
2018-03-03T16:57:38.315Z,-1.40
2018-03-03T17:00:06.049Z,-1.40
2018-03-03T17:02:33.579Z,-1.40
2018-03-03T17:05:01.087Z,-1.50
2018-03-03T17:07:28.590Z,-1.60
2018-03-03T17:09:56.096Z,-1.60
2018-03-03T17:12:24.532Z,-1.50
2018-03-03T17:14:52.319Z,-1.50
2018-03-03T17:17:19.831Z,-1.60
2018-03-03T17:19:47.381Z,-1.60
2018-03-03T17:22:15.664Z,-1.70
2018-03-03T17:24:43.352Z,-1.80
2018-03-03T17:27:10.875Z,-1.80
2018-03-03T17:29:38.622Z,-1.90
2018-03-03T17:32:06.143Z,-1.90
2018-03-03T17:34:33.827Z,-1.90
2018-03-03T17:37:01.608Z,-1.90
2018-03-03T17:39:29.118Z,-2.00
2018-03-03T17:41:56.632Z,-2.00
2018-03-03T17:44:24.922Z,-1.90
2018-03-03T17:46:52.527Z,-1.90
2018-03-03T17:49:20.024Z,-2.00
2018-03-03T17:51:47.539Z,-2.00
2018-03-03T17:54:15.045Z,-2.10
2018-03-03T17:56:42.576Z,-2.30
2018-03-03T17:59:10.211Z,-2.40
2018-03-03T18:01:37.712Z,-2.40
2018-03-03T18:04:05.228Z,-2.40
2018-03-03T18:06:32.751Z,-2.40
2018-03-03T18:09:00.283Z,-2.50
2018-03-03T18:11:27.815Z,-2.50
2018-03-03T18:13:55.323Z,-2.50
2018-03-03T18:16:23.675Z,-2.70
2018-03-03T18:18:51.311Z,-2.70
2018-03-03T18:21:18.856Z,-2.60
2018-03-03T18:23:46.631Z,-2.60
2018-03-03T18:26:14.144Z,-2.60
2018-03-03T18:28:41.825Z,-2.70
2018-03-03T18:31:09.339Z,-2.70
2018-03-03T18:33:37.366Z,-2.50
2018-03-03T18:36:04.875Z,-2.60
2018-03-03T18:38:32.423Z,-2.60
2018-03-03T18:40:59.948Z,-2.80
2018-03-03T18:43:27.491Z,-2.80
2018-03-03T18:45:55.272Z,-2.80
2018-03-03T18:48:22.779Z,-2.60
2018-03-03T18:53:24.231Z,-2.60
2018-03-03T18:55:52.536Z,-2.80
2018-03-03T18:58:20.247Z,-2.80
2018-03-03T19:00:47.765Z,-2.90
2018-03-03T19:03:15.276Z,-2.90
2018-03-03T19:05:42.795Z,-3.00
2018-03-03T19:08:10.764Z,-2.90
2018-03-03T19:10:38.445Z,-3.00
2018-03-03T19:13:06.203Z,-2.80
2018-03-03T19:15:33.972Z,-2.80
2018-03-03T19:18:01.504Z,-2.80
2018-03-03T19:20:29.062Z,-3.00
2018-03-03T19:22:57.294Z,-2.90
2018-03-03T19:25:24.809Z,-2.90
2018-03-03T19:27:52.331Z,-2.90
2018-03-03T19:30:19.848Z,-3.00
2018-03-03T19:32:48.320Z,-2.90
2018-03-03T19:35:15.846Z,-3.00
2018-03-03T19:37:43.463Z,-3.10
2018-03-03T19:40:10.976Z,-3.00
2018-03-03T19:42:38.773Z,-3.10
2018-03-03T19:45:06.287Z,-3.10
2018-03-03T19:47:33.801Z,-3.00
2018-03-03T19:50:02.076Z,-3.00
2018-03-03T19:52:29.604Z,-3.00
2018-03-03T19:54:57.119Z,-3.20
2018-03-03T19:57:24.765Z,-3.20
2018-03-03T19:59:52.275Z,-3.20
2018-03-03T20:02:19.935Z,-3.50
2018-03-03T20:04:47.703Z,-3.40
2018-03-03T20:07:15.237Z,-3.30
2018-03-03T20:09:42.936Z,-3.30
2018-03-03T20:12:10.460Z,-3.40
2018-03-03T20:14:38.157Z,-3.40
2018-03-03T20:17:06.019Z,-3.50
2018-03-03T20:19:33.519Z,-3.40
2018-03-03T20:22:01.175Z,-3.40
2018-03-03T20:24:28.661Z,-3.20
2018-03-03T20:26:56.179Z,-3.30
2018-03-03T20:29:24.724Z,-3.30
2018-03-03T20:31:52.247Z,-3.30
2018-03-03T20:34:19.945Z,-3.40
2018-03-03T20:36:47.809Z,-3.50
2018-03-03T20:39:15.476Z,-3.60
2018-03-03T20:41:43.009Z,-3.60
2018-03-03T20:44:10.524Z,-3.60
2018-03-03T20:46:38.040Z,-3.60
2018-03-03T20:49:05.608Z,-3.80
2018-03-03T20:51:33.128Z,-3.90
2018-03-03T20:54:00.799Z,-3.90
2018-03-03T20:56:28.630Z,-3.70
2018-03-03T20:58:56.357Z,-3.70
2018-03-03T21:01:23.860Z,-3.80
2018-03-03T21:03:51.383Z,-3.70
2018-03-03T21:06:18.992Z,-3.90
2018-03-03T21:08:46.524Z,-3.80
2018-03-03T21:11:14.037Z,-3.80
2018-03-03T21:13:41.688Z,-3.90
2018-03-03T21:16:09.467Z,-3.90
2018-03-03T21:18:36.999Z,-3.80
2018-03-03T21:21:04.508Z,-3.80
2018-03-03T21:23:32.032Z,-3.80
2018-03-03T21:25:59.539Z,-3.90
2018-03-03T21:28:27.939Z,-3.90
2018-03-03T21:30:55.578Z,-3.90
2018-03-03T21:33:23.866Z,-3.80
2018-03-03T21:35:51.556Z,-3.90
2018-03-03T21:38:19.071Z,-3.80
2018-03-03T21:40:46.808Z,-3.80
2018-03-03T21:43:14.566Z,-3.90
2018-03-03T21:45:42.082Z,-4.00
2018-03-03T21:48:09.782Z,-4.10
2018-03-03T21:50:37.572Z,-4.10
2018-03-03T21:53:05.088Z,-4.20
2018-03-03T21:55:32.766Z,-4.20
2018-03-03T21:58:00.299Z,-4.00
2018-03-03T22:00:28.033Z,-4.00
2018-03-03T22:02:55.752Z,-4.10
2018-03-03T22:05:23.522Z,-4.10
2018-03-03T22:07:51.279Z,-4.10
2018-03-03T22:10:18.800Z,-4.20
2018-03-03T22:12:46.300Z,-4.20
2018-03-03T22:15:13.836Z,-4.10
2018-03-03T22:17:41.383Z,-4.10
2018-03-03T22:20:08.902Z,-4.20
2018-03-03T22:22:36.407Z,-4.00
2018-03-03T22:25:04.084Z,-4.10
2018-03-03T22:27:31.600Z,-4.20
2018-03-03T22:29:59.283Z,-4.20
2018-03-03T22:32:27.076Z,-4.20
2018-03-03T22:34:54.844Z,-4.30
2018-03-03T22:37:22.362Z,-4.30
2018-03-03T22:39:49.879Z,-4.30
2018-03-03T22:42:18.158Z,-4.40
2018-03-03T22:44:45.887Z,-4.40
2018-03-03T22:47:13.397Z,-4.30
2018-03-03T22:49:40.916Z,-4.40
2018-03-03T22:52:08.444Z,-4.40
2018-03-03T22:54:36.024Z,-4.40
2018-03-03T22:57:03.548Z,-4.40
2018-03-03T22:59:31.055Z,-4.50
2018-03-03T23:01:58.695Z,-4.60
2018-03-03T23:04:26.213Z,-4.80
2018-03-03T23:06:53.736Z,-4.70
2018-03-03T23:09:21.248Z,-4.70
2018-03-03T23:11:48.849Z,-4.70
2018-03-03T23:14:16.604Z,-4.50
2018-03-03T23:16:44.128Z,-4.50
2018-03-03T23:19:11.769Z,-4.60
2018-03-03T23:21:39.582Z,-4.70
2018-03-03T23:24:07.100Z,-4.50
2018-03-03T23:26:34.617Z,-4.50
2018-03-03T23:29:02.128Z,-4.60
2018-03-03T23:31:30.635Z,-4.60
2018-03-03T23:33:58.395Z,-4.60
2018-03-03T23:36:25.916Z,-4.50
2018-03-03T23:38:53.589Z,-4.70
2018-03-03T23:41:21.112Z,-4.70
2018-03-03T23:43:48.833Z,-4.60
2018-03-03T23:46:16.349Z,-4.50
2018-03-03T23:48:44.025Z,-4.50
2018-03-03T23:51:11.815Z,-4.50
2018-03-03T23:53:39.323Z,-4.70
2018-03-03T23:56:06.849Z,-4.50
2018-03-03T23:58:34.493Z,-4.60
